createdAt,value
2023-04-18T00:02:07.249Z,7.80
2023-04-18T00:04:36.952Z,7.80
2023-04-18T00:07:06.239Z,7.70
2023-04-18T00:09:33.064Z,7.70
2023-04-18T00:11:59.876Z,7.50
2023-04-18T00:14:26.604Z,7.50
2023-04-18T00:16:54.193Z,7.40
2023-04-18T00:19:21.615Z,7.30
2023-04-18T00:21:49.467Z,7.20
2023-04-18T00:24:16.625Z,7.10
2023-04-18T00:26:43.408Z,7.10
2023-04-18T00:29:10.023Z,7.10
2023-04-18T00:31:36.944Z,7.20
2023-04-18T00:34:03.785Z,7.20
2023-04-18T00:36:31.091Z,7.10
2023-04-18T00:38:57.847Z,7.20
2023-04-18T00:41:27.496Z,7.10
2023-04-18T00:43:57.244Z,7.10
2023-04-18T00:46:23.932Z,7.10
2023-04-18T00:48:50.755Z,7.10
2023-04-18T00:51:17.390Z,7.10
2023-04-18T00:53:44.646Z,7.00
2023-04-18T00:56:11.267Z,7.00
2023-04-18T00:58:40.397Z,6.90
2023-04-18T01:01:07.809Z,6.80
2023-04-18T01:03:34.868Z,6.80
2023-04-18T01:08:32.262Z,6.70
2023-04-18T01:10:58.842Z,6.80
2023-04-18T01:13:25.380Z,6.80
2023-04-18T01:15:51.972Z,6.90
2023-04-18T01:18:18.936Z,6.90
2023-04-18T01:20:49.285Z,6.80
2023-04-18T01:23:16.427Z,6.70
2023-04-18T01:25:43.672Z,6.60
2023-04-18T01:28:10.752Z,6.50
2023-04-18T01:30:37.371Z,6.50
2023-04-18T01:33:04.691Z,6.30
2023-04-18T01:35:32.017Z,6.20
2023-04-18T01:37:58.900Z,6.10
2023-04-18T01:40:28.889Z,6.10
2023-04-18T01:42:55.588Z,6.00
2023-04-18T01:45:22.439Z,6.00
2023-04-18T01:47:49.238Z,6.10
2023-04-18T01:50:15.947Z,6.00
2023-04-18T01:52:42.813Z,6.00
2023-04-18T01:55:09.676Z,6.00
2023-04-18T01:57:38.712Z,6.10
2023-04-18T02:00:06.304Z,6.00
2023-04-18T02:02:33.268Z,5.90
2023-04-18T02:05:00.209Z,5.90
2023-04-18T02:07:29.748Z,6.00
2023-04-18T02:09:56.428Z,5.90
2023-04-18T02:12:23.037Z,6.00
2023-04-18T02:14:53.601Z,6.00
2023-04-18T02:17:26.336Z,6.00
2023-04-18T02:19:53.016Z,6.00
2023-04-18T02:22:19.952Z,6.00
2023-04-18T02:24:46.661Z,6.00
2023-04-18T02:27:13.306Z,6.00
2023-04-18T02:29:39.937Z,6.00
2023-04-18T02:32:06.699Z,6.00
2023-04-18T02:34:33.758Z,5.90
2023-04-18T02:37:00.678Z,5.90
2023-04-18T02:39:27.338Z,5.90
2023-04-18T02:41:54.140Z,5.90
2023-04-18T02:44:20.830Z,5.80
2023-04-18T02:46:47.514Z,5.90
2023-04-18T02:49:16.701Z,5.80
2023-04-18T02:51:43.386Z,5.80
2023-04-18T02:54:10.097Z,5.80
2023-04-18T02:56:40.058Z,5.80
2023-04-18T02:59:07.215Z,5.70
2023-04-18T03:01:34.241Z,5.70
2023-04-18T03:04:00.908Z,5.70
2023-04-18T03:06:30.333Z,5.70
2023-04-18T03:08:56.993Z,5.60
2023-04-18T03:11:23.654Z,5.60
2023-04-18T03:13:50.270Z,5.50
2023-04-18T03:16:17.056Z,5.50
2023-04-18T03:18:47.416Z,5.50
2023-04-18T03:21:14.753Z,5.40
2023-04-18T03:23:41.402Z,5.30
2023-04-18T03:26:08.962Z,5.30
2023-04-18T03:28:35.716Z,5.20
2023-04-18T03:31:02.438Z,5.20
2023-04-18T03:33:30.310Z,5.20
2023-04-18T03:35:57.047Z,5.20
2023-04-18T03:38:23.798Z,5.20
2023-04-18T03:40:50.718Z,5.20
2023-04-18T03:43:19.116Z,5.00
2023-04-18T03:45:50.070Z,5.00
2023-04-18T03:48:16.763Z,5.00
2023-04-18T03:50:43.458Z,4.90
2023-04-18T03:53:10.202Z,4.80
2023-04-18T03:55:38.045Z,4.90
2023-04-18T03:58:04.779Z,4.90
2023-04-18T04:00:31.416Z,4.80
2023-04-18T04:02:58.156Z,4.90
2023-04-18T04:05:26.312Z,4.90
2023-04-18T04:07:53.048Z,4.90
2023-04-18T04:10:19.782Z,4.90
2023-04-18T04:12:49.326Z,4.90
2023-04-18T04:15:16.152Z,4.90
2023-04-18T04:17:42.909Z,4.90
2023-04-18T04:20:09.951Z,5.00
2023-04-18T04:22:37.472Z,4.90
2023-04-18T04:25:04.655Z,5.00
2023-04-18T04:27:31.374Z,5.00
2023-04-18T04:29:58.029Z,5.00
2023-04-18T04:32:26.362Z,5.00
2023-04-18T04:34:53.619Z,5.00
2023-04-18T04:37:20.287Z,5.00
2023-04-18T04:39:47.204Z,5.00
2023-04-18T04:42:13.848Z,5.00
2023-04-18T04:44:41.680Z,5.00
2023-04-18T04:47:08.622Z,5.10
2023-04-18T04:49:35.423Z,5.10
2023-04-18T04:52:03.146Z,5.30
2023-04-18T04:54:30.301Z,5.40
2023-04-18T04:56:57.026Z,5.50
2023-04-18T04:59:24.003Z,5.60
2023-04-18T05:01:51.068Z,5.60
2023-04-18T05:04:20.785Z,5.60
2023-04-18T05:06:47.692Z,5.70
2023-04-18T05:09:14.425Z,5.80
2023-04-18T05:11:41.154Z,5.90
2023-04-18T05:14:08.054Z,5.90
2023-04-18T05:16:34.855Z,5.90
2023-04-18T05:19:01.633Z,6.00
2023-04-18T05:21:28.925Z,6.00
2023-04-18T05:24:04.490Z,6.10
2023-04-18T05:26:31.328Z,6.20
2023-04-18T05:28:58.000Z,6.30
2023-04-18T05:31:24.954Z,6.40
2023-04-18T05:33:51.713Z,6.40
2023-04-18T05:36:20.392Z,6.50
2023-04-18T05:38:47.164Z,6.60
2023-04-18T05:41:13.974Z,6.70
2023-04-18T05:43:41.825Z,6.70
2023-04-18T05:46:09.800Z,6.80
2023-04-18T05:48:36.539Z,6.90
2023-04-18T05:51:04.394Z,6.90
2023-04-18T05:53:31.187Z,7.00
2023-04-18T05:56:01.382Z,7.10
2023-04-18T05:58:28.871Z,7.10
2023-04-18T06:00:55.836Z,7.10
2023-04-18T06:03:22.972Z,7.20
2023-04-18T06:05:49.846Z,7.30
2023-04-18T06:08:16.761Z,7.40
2023-04-18T06:10:43.381Z,7.50
2023-04-18T06:13:13.426Z,7.60
2023-04-18T06:15:40.808Z,7.70
2023-04-18T06:18:16.038Z,7.80
2023-04-18T06:20:48.158Z,7.80
2023-04-18T06:23:14.927Z,7.90
2023-04-18T06:25:42.369Z,8.00
2023-04-18T06:28:11.573Z,8.20
2023-04-18T06:30:38.319Z,8.20
2023-04-18T06:33:07.124Z,8.10
2023-04-18T06:35:33.951Z,8.20
2023-04-18T06:38:00.888Z,8.10
2023-04-18T06:40:29.818Z,8.10
2023-04-18T06:42:57.648Z,8.10
2023-04-18T06:45:25.139Z,8.10
2023-04-18T06:47:54.426Z,8.20
2023-04-18T06:50:28.799Z,8.20
2023-04-18T06:52:55.695Z,8.30
2023-04-18T06:55:22.606Z,8.30
2023-04-18T06:57:49.390Z,8.30
2023-04-18T07:00:19.157Z,8.40
2023-04-18T07:02:46.040Z,8.40
2023-04-18T07:05:12.847Z,8.50
2023-04-18T07:07:39.792Z,8.50
2023-04-18T07:10:06.944Z,8.50
2023-04-18T07:12:33.973Z,8.60
2023-04-18T07:15:00.786Z,8.70
2023-04-18T07:17:27.482Z,8.70
2023-04-18T07:19:54.170Z,8.80
2023-04-18T07:22:21.109Z,8.80
2023-04-18T07:24:47.886Z,8.80
2023-04-18T07:27:15.024Z,8.70
2023-04-18T07:29:41.664Z,8.70
2023-04-18T07:32:08.687Z,8.80
2023-04-18T07:34:36.170Z,8.80
2023-04-18T07:37:03.242Z,8.90
2023-04-18T07:39:31.786Z,9.00
2023-04-18T07:41:58.831Z,9.00
2023-04-18T07:44:25.413Z,9.10
2023-04-18T07:46:51.986Z,9.00
2023-04-18T07:49:18.554Z,9.10
2023-04-18T07:51:45.117Z,9.30
2023-04-18T07:54:11.678Z,9.40
2023-04-18T07:56:38.269Z,9.50
2023-04-18T07:59:04.843Z,9.60
2023-04-18T08:01:31.626Z,9.50
2023-04-18T08:04:01.794Z,9.60
2023-04-18T08:06:28.966Z,9.80
2023-04-18T08:08:55.731Z,10.00
2023-04-18T08:11:22.557Z,10.30
2023-04-18T08:13:49.213Z,10.40
2023-04-18T08:16:17.484Z,10.80
2023-04-18T08:18:44.341Z,10.90
2023-04-18T08:21:11.315Z,11.10
2023-04-18T08:23:38.186Z,11.20
2023-04-18T08:26:04.840Z,11.20
2023-04-18T08:28:31.441Z,11.20
2023-04-18T08:30:58.112Z,11.20
2023-04-18T08:33:24.892Z,11.10
2023-04-18T08:35:51.488Z,11.00
2023-04-18T08:38:21.756Z,11.00
2023-04-18T08:40:48.367Z,11.00
2023-04-18T08:43:15.803Z,11.20
2023-04-18T08:45:43.156Z,11.40
2023-04-18T08:48:13.663Z,11.50
2023-04-18T08:50:46.272Z,11.40
2023-04-18T08:53:13.225Z,11.50
2023-04-18T08:55:40.594Z,11.70
2023-04-18T08:58:07.257Z,11.50
2023-04-18T09:00:35.147Z,11.60
2023-04-18T09:03:04.939Z,11.60
2023-04-18T09:05:31.677Z,11.60
2023-04-18T09:07:58.227Z,11.60
2023-04-18T09:10:27.330Z,11.60
2023-04-18T09:12:54.143Z,11.90
2023-04-18T09:15:23.769Z,12.00
2023-04-18T09:17:53.363Z,11.90
2023-04-18T09:20:35.526Z,11.80
2023-04-18T09:23:03.807Z,11.70
2023-04-18T09:25:42.728Z,11.70
2023-04-18T09:28:28.058Z,11.70
2023-04-18T09:31:15.608Z,11.80
2023-04-18T09:33:57.184Z,11.90
2023-04-18T09:36:24.872Z,12.00
2023-04-18T09:38:55.377Z,12.00
2023-04-18T09:41:23.666Z,12.20
2023-04-18T09:43:55.432Z,13.20
2023-04-18T09:46:22.731Z,13.40
2023-04-18T09:48:52.277Z,13.60
2023-04-18T09:51:20.566Z,13.90
2023-04-18T09:53:48.071Z,14.30
2023-04-18T09:56:19.777Z,15.30
2023-04-18T09:58:48.542Z,16.30
2023-04-18T10:01:17.856Z,15.70
2023-04-18T10:03:47.279Z,15.20
2023-04-18T10:06:16.199Z,14.70
2023-04-18T10:08:46.335Z,14.30
2023-04-18T10:11:13.575Z,13.80
2023-04-18T10:13:41.805Z,14.00
2023-04-18T10:16:08.854Z,14.60
2023-04-18T10:18:36.035Z,14.90
2023-04-18T10:21:03.978Z,14.80
2023-04-18T10:23:40.725Z,14.80
2023-04-18T10:26:08.277Z,14.50
2023-04-18T10:29:01.651Z,14.30
2023-04-18T10:31:29.365Z,14.30
2023-04-18T10:34:05.286Z,14.10
2023-04-18T10:36:33.411Z,13.90
2023-04-18T10:39:00.866Z,13.90
2023-04-18T10:41:31.629Z,13.90
2023-04-18T10:44:08.631Z,13.60
2023-04-18T10:46:42.542Z,13.80
2023-04-18T10:49:24.017Z,13.70
2023-04-18T10:52:09.106Z,13.60
2023-04-18T10:54:48.893Z,13.40
2023-04-18T10:57:15.779Z,13.30
2023-04-18T10:59:46.781Z,13.50
2023-04-18T11:02:30.634Z,13.90
2023-04-18T11:05:06.572Z,13.70
2023-04-18T11:07:37.201Z,14.00
2023-04-18T11:10:09.983Z,14.00
2023-04-18T11:12:40.734Z,14.20
2023-04-18T11:15:17.393Z,14.70
2023-04-18T11:18:18.762Z,14.80
2023-04-18T11:20:52.762Z,14.70
2023-04-18T11:23:30.708Z,14.90
2023-04-18T11:26:01.174Z,15.10
2023-04-18T11:28:31.905Z,15.30
2023-04-18T11:31:03.275Z,15.00
2023-04-18T11:33:38.297Z,15.10
2023-04-18T11:36:07.965Z,15.30
2023-04-18T11:38:36.591Z,15.40
2023-04-18T11:41:06.130Z,15.90
2023-04-18T11:43:37.548Z,16.00
2023-04-18T11:46:12.165Z,15.60
2023-04-18T11:48:46.255Z,15.10
2023-04-18T11:51:38.443Z,15.20
2023-04-18T11:54:30.331Z,15.40
2023-04-18T11:57:01.129Z,15.40
2023-04-18T11:59:29.768Z,15.00
2023-04-18T12:02:17.301Z,15.10
2023-04-18T12:04:52.160Z,15.00
2023-04-18T12:07:38.529Z,14.90
2023-04-18T12:10:08.834Z,15.20
2023-04-18T12:12:47.682Z,15.00
2023-04-18T12:15:15.141Z,15.10
2023-04-18T12:17:45.933Z,15.40
2023-04-18T12:20:18.410Z,15.30
2023-04-18T12:23:03.109Z,15.40
2023-04-18T12:25:40.610Z,16.00
2023-04-18T12:28:21.467Z,17.20
2023-04-18T12:30:48.377Z,17.60
2023-04-18T12:33:17.272Z,17.00
2023-04-18T12:35:44.456Z,17.30
2023-04-18T12:38:11.597Z,17.20
2023-04-18T12:40:41.685Z,17.30
2023-04-18T12:43:15.705Z,17.50
2023-04-18T12:45:50.741Z,17.00
2023-04-18T12:48:20.748Z,17.20
2023-04-18T12:50:55.986Z,16.80
2023-04-18T12:53:31.472Z,17.40
2023-04-18T12:56:00.927Z,18.30
2023-04-18T12:58:29.455Z,19.30
2023-04-18T13:01:01.240Z,19.20
2023-04-18T13:03:31.083Z,19.00
2023-04-18T13:06:01.104Z,19.30
2023-04-18T13:08:28.066Z,18.70
2023-04-18T13:10:57.896Z,18.90
2023-04-18T13:13:24.928Z,18.90
2023-04-18T13:15:54.009Z,18.70
2023-04-18T13:18:21.857Z,18.90
2023-04-18T13:20:51.230Z,19.00
2023-04-18T13:23:21.789Z,18.90
2023-04-18T13:25:51.009Z,19.50
2023-04-18T13:28:20.262Z,19.80
2023-04-18T13:30:49.787Z,19.80
2023-04-18T13:33:22.189Z,19.40
2023-04-18T13:35:50.535Z,18.60
2023-04-18T13:38:20.493Z,19.00
2023-04-18T13:40:47.100Z,19.80
2023-04-18T13:43:15.309Z,19.50
2023-04-18T13:45:41.934Z,19.10
2023-04-18T13:48:08.561Z,18.80
2023-04-18T13:50:35.256Z,19.40
2023-04-18T13:53:01.911Z,19.80
2023-04-18T13:55:28.894Z,20.50
2023-04-18T13:57:55.723Z,20.00
2023-04-18T14:00:22.316Z,19.90
2023-04-18T14:02:49.119Z,19.80
2023-04-18T14:05:15.901Z,20.00
2023-04-18T14:07:42.909Z,20.10
2023-04-18T14:10:09.813Z,20.50
2023-04-18T14:12:39.170Z,20.60
2023-04-18T14:15:06.147Z,19.70
2023-04-18T14:17:33.651Z,19.30
2023-04-18T14:20:00.770Z,19.90
2023-04-18T14:22:27.412Z,20.00
2023-04-18T14:24:56.100Z,19.80
2023-04-18T14:27:23.554Z,20.20
2023-04-18T14:29:53.039Z,21.20
2023-04-18T14:32:28.951Z,21.50
2023-04-18T14:34:58.767Z,21.20
2023-04-18T14:37:25.542Z,21.00
2023-04-18T14:39:54.554Z,21.10
2023-04-18T14:42:21.946Z,20.60
2023-04-18T14:44:48.746Z,20.70
2023-04-18T14:47:15.910Z,21.30
2023-04-18T14:49:43.847Z,21.20
2023-04-18T14:52:13.456Z,22.40
2023-04-18T14:54:40.126Z,21.50
2023-04-18T14:57:08.416Z,22.20
2023-04-18T14:59:35.138Z,23.10
2023-04-18T15:02:03.053Z,23.80
2023-04-18T15:04:29.962Z,23.30
2023-04-18T15:06:56.889Z,22.30
2023-04-18T15:09:23.620Z,21.80
2023-04-18T15:11:50.763Z,21.40
2023-04-18T15:14:17.424Z,21.30
2023-04-18T15:16:48.712Z,22.00
2023-04-18T15:19:15.600Z,22.80
2023-04-18T15:21:51.176Z,23.50
2023-04-18T15:24:17.981Z,24.20
2023-04-18T15:26:45.215Z,24.50
2023-04-18T15:29:11.875Z,23.30
2023-04-18T15:31:39.293Z,23.30
2023-04-18T15:34:07.101Z,22.30
2023-04-18T15:36:35.863Z,21.70
2023-04-18T15:41:34.375Z,22.60
2023-04-18T15:44:01.034Z,23.30
2023-04-18T15:46:27.739Z,24.50
2023-04-18T15:48:54.575Z,24.50
2023-04-18T15:51:21.731Z,24.90
2023-04-18T15:53:48.668Z,25.40
2023-04-18T15:56:15.318Z,26.10
2023-04-18T15:58:44.316Z,24.80
2023-04-18T16:01:12.137Z,25.30
2023-04-18T16:03:41.855Z,25.40
2023-04-18T16:06:11.902Z,25.80
2023-04-18T16:08:41.291Z,25.90
2023-04-18T16:11:09.080Z,25.40
2023-04-18T16:13:41.241Z,24.40
2023-04-18T16:16:08.130Z,23.70
2023-04-18T16:18:35.102Z,24.30
2023-04-18T16:21:01.884Z,24.90
2023-04-18T16:23:32.634Z,25.20
2023-04-18T16:26:02.001Z,23.90
2023-04-18T16:28:31.130Z,23.70
2023-04-18T16:30:57.870Z,23.10
2023-04-18T16:33:27.316Z,22.40
2023-04-18T16:35:56.735Z,22.50
2023-04-18T16:38:25.347Z,22.50
2023-04-18T16:40:52.076Z,22.70
2023-04-18T16:43:18.904Z,22.60
2023-04-18T16:45:45.643Z,22.30
2023-04-18T16:48:12.610Z,22.00
2023-04-18T16:50:41.978Z,22.00
2023-04-18T16:53:19.072Z,22.40
2023-04-18T16:55:46.022Z,22.90
2023-04-18T16:58:23.430Z,23.00
2023-04-18T17:00:55.186Z,23.10
2023-04-18T17:03:22.549Z,23.20
2023-04-18T17:05:49.348Z,23.30
2023-04-18T17:08:18.573Z,23.20
2023-04-18T17:10:46.029Z,23.60
2023-04-18T17:13:12.841Z,23.50
2023-04-18T17:15:39.506Z,22.90
2023-04-18T17:18:06.224Z,22.60
2023-04-18T17:20:32.729Z,22.20
2023-04-18T17:22:59.290Z,21.70
2023-04-18T17:25:25.821Z,21.30
2023-04-18T17:27:52.422Z,20.40
2023-04-18T17:30:19.032Z,19.50
2023-04-18T17:32:46.071Z,19.30
2023-04-18T17:35:14.445Z,18.90
2023-04-18T17:37:42.169Z,19.10
2023-04-18T17:40:09.832Z,19.10
2023-04-18T17:42:36.841Z,18.80
2023-04-18T17:45:07.530Z,18.40
2023-04-18T17:47:34.539Z,18.10
2023-04-18T17:50:01.105Z,17.60
2023-04-18T17:52:28.534Z,17.30
2023-04-18T17:54:56.353Z,17.20
2023-04-18T17:57:23.469Z,17.00
2023-04-18T17:59:50.013Z,17.00
2023-04-18T18:02:16.671Z,16.70
2023-04-18T18:04:43.243Z,16.70
2023-04-18T18:07:12.859Z,16.70
2023-04-18T18:09:40.724Z,16.40
2023-04-18T18:12:08.146Z,16.30
2023-04-18T18:14:34.643Z,16.00
2023-04-18T18:17:01.290Z,15.80
2023-04-18T18:19:27.864Z,15.60
2023-04-18T18:21:54.535Z,15.60
2023-04-18T18:24:21.136Z,15.40
2023-04-18T18:26:48.562Z,15.30
2023-04-18T18:29:17.094Z,15.30
2023-04-18T18:31:43.804Z,15.20
2023-04-18T18:34:10.813Z,15.00
2023-04-18T18:36:37.396Z,14.80
2023-04-18T18:39:04.046Z,14.70
2023-04-18T18:41:31.036Z,14.60
2023-04-18T18:43:57.579Z,14.50
2023-04-18T18:46:24.125Z,14.40
2023-04-18T18:48:51.774Z,14.30
2023-04-18T18:51:19.069Z,14.20
2023-04-18T18:53:46.311Z,14.20
2023-04-18T18:56:12.929Z,14.10
2023-04-18T18:58:39.466Z,14.00
2023-04-18T19:01:06.592Z,13.90
2023-04-18T19:03:34.621Z,13.80
2023-04-18T19:06:03.804Z,13.80
2023-04-18T19:08:30.804Z,13.80
2023-04-18T19:10:57.437Z,13.80
2023-04-18T19:13:24.175Z,13.70
2023-04-18T19:15:51.137Z,13.70
2023-04-18T19:18:21.170Z,13.80
2023-04-18T19:20:49.336Z,13.80
2023-04-18T19:23:16.962Z,13.80
2023-04-18T19:25:44.903Z,13.80
2023-04-18T19:28:12.804Z,13.80
2023-04-18T19:30:39.468Z,13.70
2023-04-18T19:33:06.201Z,13.70
2023-04-18T19:35:32.819Z,13.80
2023-04-18T19:38:02.143Z,13.80
2023-04-18T19:40:29.226Z,13.80
2023-04-18T19:42:55.827Z,13.80
2023-04-18T19:45:22.422Z,13.80
2023-04-18T19:47:49.051Z,13.80
2023-04-18T19:50:15.787Z,13.90
2023-04-18T19:52:45.285Z,13.80
2023-04-18T19:55:12.086Z,13.80
2023-04-18T19:57:39.486Z,13.80
2023-04-18T20:00:07.386Z,13.80
2023-04-18T20:02:34.147Z,13.90
2023-04-18T20:05:01.006Z,13.90
2023-04-18T20:07:27.628Z,13.80
2023-04-18T20:09:57.187Z,13.80
2023-04-18T20:12:23.714Z,13.70
2023-04-18T20:14:51.377Z,13.70
2023-04-18T20:17:18.369Z,13.80
2023-04-18T20:19:47.059Z,13.80
2023-04-18T20:22:14.814Z,13.70
2023-04-18T20:24:41.333Z,13.60
2023-04-18T20:27:08.046Z,13.60
2023-04-18T20:29:34.653Z,13.50
2023-04-18T20:32:01.185Z,13.50
2023-04-18T20:34:27.838Z,13.50
2023-04-18T20:36:54.430Z,13.50
2023-04-18T20:39:20.971Z,13.60
2023-04-18T20:41:53.666Z,13.60
2023-04-18T20:44:21.609Z,13.60
2023-04-18T20:46:48.132Z,13.60
2023-04-18T20:49:15.533Z,13.60
2023-04-18T20:51:42.600Z,13.50
2023-04-18T20:54:15.851Z,13.60
2023-04-18T20:56:52.628Z,13.50
2023-04-18T20:59:28.090Z,13.50
2023-04-18T21:01:54.700Z,13.50
2023-04-18T21:04:21.408Z,13.40
2023-04-18T21:06:47.966Z,13.40
2023-04-18T21:09:15.248Z,13.30
2023-04-18T21:11:42.080Z,13.40
2023-04-18T21:14:08.734Z,13.30
2023-04-18T21:16:36.698Z,13.30
2023-04-18T21:19:03.354Z,13.40
2023-04-18T21:21:30.012Z,13.30
2023-04-18T21:23:56.586Z,13.20
2023-04-18T21:26:23.064Z,13.20
2023-04-18T21:28:56.554Z,13.20
2023-04-18T21:31:23.525Z,13.20
2023-04-18T21:33:56.389Z,13.20
2023-04-18T21:36:23.360Z,13.20
2023-04-18T21:38:53.699Z,13.10
2023-04-18T21:41:20.804Z,13.20
2023-04-18T21:43:47.418Z,13.20
2023-04-18T21:46:14.103Z,13.20
2023-04-18T21:48:41.206Z,13.20
2023-04-18T21:51:08.381Z,13.20
2023-04-18T21:53:35.425Z,13.10
2023-04-18T21:56:01.949Z,13.20
2023-04-18T21:58:28.580Z,13.20
2023-04-18T22:00:55.288Z,13.10
2023-04-18T22:03:22.649Z,13.10
2023-04-18T22:05:50.157Z,13.10
2023-04-18T22:08:16.743Z,13.10
2023-04-18T22:10:44.717Z,13.10
2023-04-18T22:13:11.346Z,13.10
2023-04-18T22:15:39.393Z,13.10
2023-04-18T22:18:06.447Z,13.10
2023-04-18T22:20:33.650Z,13.10
2023-04-18T22:23:00.217Z,13.10
2023-04-18T22:25:26.744Z,13.00
2023-04-18T22:27:53.298Z,13.00
2023-04-18T22:30:20.544Z,13.00
2023-04-18T22:32:47.096Z,12.90
2023-04-18T22:35:13.652Z,12.90
2023-04-18T22:37:40.193Z,12.90
2023-04-18T22:40:07.207Z,12.80
2023-04-18T22:42:38.794Z,12.80
2023-04-18T22:45:06.637Z,12.80
2023-04-18T22:47:33.762Z,12.80
2023-04-18T22:50:01.374Z,12.80
2023-04-18T22:52:41.162Z,12.70
2023-04-18T22:55:08.370Z,12.60
2023-04-18T22:57:36.273Z,12.60
2023-04-18T23:00:07.096Z,12.60
2023-04-18T23:02:36.303Z,12.50
2023-04-18T23:05:04.156Z,12.60
2023-04-18T23:07:30.777Z,12.60
2023-04-18T23:10:04.165Z,12.60
2023-04-18T23:12:33.837Z,12.60
2023-04-18T23:15:01.030Z,12.50
2023-04-18T23:17:27.934Z,12.60
2023-04-18T23:19:57.776Z,12.50
2023-04-18T23:22:38.298Z,12.50
2023-04-18T23:25:07.760Z,12.50
2023-04-18T23:27:34.508Z,12.50
2023-04-18T23:30:05.979Z,12.50
2023-04-18T23:32:38.918Z,12.40
2023-04-18T23:35:09.193Z,12.50
2023-04-18T23:37:35.952Z,12.40
2023-04-18T23:40:06.649Z,12.40
2023-04-18T23:42:39.429Z,12.40
2023-04-18T23:45:06.652Z,12.40
2023-04-18T23:47:36.603Z,12.30
2023-04-18T23:50:08.229Z,12.30
2023-04-18T23:52:34.984Z,12.30
2023-04-18T23:55:02.272Z,12.30
2023-04-18T23:57:40.364Z,12.30
